EGBJ/GLO METAR and TAF weather

Enter ICAO airport designator
Station Type Date Time Source
EGBJ METAR 2020/03/29 16:50 UTC NOAA

EGBJ 291650Z 04016G27KT 9999 SCT030 08/M03 Q1040


Station Type Date Time Source
EGBJ Decoded METAR 2020/03/29 16:50 UTC NOAA

Staverton Private , United Kingdom (EGBJ) 51-54N 002-10W
Mar 29, 2020 - 12:50 PM EDT / 2020.03.29 1650 UTC
Wind: from the NE (040 degrees) at 18 MPH (16 KT) gusting to 31 MPH (27 KT):0
Visibility: greater than 7 mile(s):0
Sky conditions: partly cloudy
Temperature: 46 F (8 C)
Dew Point: 26 F (-3 C)
Relative Humidity: 45%
Pressure (altimeter): 30.71 in. Hg (1040 hPa)
ob: EGBJ 291650Z 04016G27KT 9999 SCT030 08/M03 Q1040
cycle: 17

Station Type Date Time Source
EGBJ TAF UTC NOAA

Error!

Example: see airport list